Terminal Aerodrome Forecast
Issued by NWS

Home | Current Version | Previous Version | Text Only | Print | Product List | Glossary On
Versions: 1 2 3 4 5 6 7 8 9 10 11 12 13 14 15 16 17 18 19 20 21 22 23 24 25 26 27
000
FTUS44 KHGX 292336
TAFCXO
TAF
KCXO 292336Z 3000/3024 12004KT P6SM SCT030 BKN040
     FM300200 12005KT P6SM SCT040 BKN150
     FM300600 12005KT P6SM SCT015 SCT150
     FM301400 13006KT P6SM VCSH SCT035
     FM301900 15008KT P6SM VCTS BKN035CB=

USA.gov is the U.S. government's official web portal to all federal, state and local government web resources and services.